Time;durP1;ratioP1;P1;durP2;ratioP2;P2;SDS_P1;SDS_P2;PMS_P1;PMS_P2;Temp;Humidity;BMP_temperature;BMP_pressure;BME280_temperature;BME280_humidity;BME280_pressure;Samples;Min_cycle;Max_cycle;Signal;HPM_P1;HPM_P2
2023/02/21 02:16:41;;;;;;;10.23;7.00;;;7.10;95.50;;;;;;6286335;28;20948;-67
2023/02/21 02:20:15;;;;;;;7.37;6.23;;;7.00;96.10;;;;;;6300276;28;20477;-67
2023/02/21 02:23:48;;;;;;;6.77;5.57;;;7.00;95.80;;;;;;6300170;28;20818;-67
2023/02/21 02:27:33;;;;;;;6.63;5.80;;;7.00;95.80;;;;;;6298316;28;20971;-67
2023/02/21 02:31:18;;;;;;;6.37;5.73;;;7.00;95.80;;;;;;6230315;28;20479;-67
2023/02/21 02:34:49;;;;;;;8.43;5.63;;;6.90;96.10;;;;;;6311644;28;21023;-67
2023/02/21 02:37:57;;;;;;;6.30;5.70;;;6.90;95.90;;;;;;6300304;28;20924;-67
2023/02/21 02:41:08;;;;;;;6.50;5.43;;;6.80;96.20;;;;;;6299711;28;20476;-67
2023/02/21 02:44:18;;;;;;;7.53;5.17;;;6.70;96.30;;;;;;6300117;28;20484;-67
2023/02/21 02:47:27;;;;;;;5.63;4.73;;;6.80;96.40;;;;;;6300677;28;20477;-67
2023/02/21 02:50:33;;;;;;;7.00;5.40;;;6.80;96.40;;;;;;6308244;28;20922;-67
2023/02/21 02:53:36;;;;;;;6.27;5.70;;;6.80;96.30;;;;;;6305016;28;21003;-67
2023/02/21 02:56:39;;;;;;;6.33;5.73;;;6.80;96.50;;;;;;6299516;28;20808;-67
2023/02/21 02:59:46;;;;;;;6.80;4.80;;;6.80;96.50;;;;;;6299700;28;20489;-67
2023/02/21 03:03:06;;;;;;;11.47;5.00;;;6.80;96.60;;;;;;6299376;28;20465;-67
2023/02/21 03:06:22;;;;;;;8.50;5.17;;;6.70;96.60;;;;;;6299715;28;20466;-67
2023/02/21 03:09:30;;;;;;;6.30;5.60;;;6.80;96.70;;;;;;6299405;28;20486;-67
2023/02/21 03:12:38;;;;;;;6.47;4.97;;;6.70;96.60;;;;;;6299411;28;20470;-67
2023/02/21 03:15:49;;;;;;;7.60;5.13;;;6.70;96.60;;;;;;6300062;28;20477;-67
2023/02/21 03:18:57;;;;;;;9.40;5.20;;;6.60;96.90;;;;;;6299090;28;20562;-67
2023/02/21 03:22:06;;;;;;;7.17;5.67;;;6.60;96.80;;;;;;6299031;28;20465;-67
2023/02/21 03:25:11;;;;;;;6.17;5.30;;;6.60;96.80;;;;;;6299410;28;20957;-67
2023/02/21 03:28:15;;;;;;;7.20;4.90;;;6.70;96.80;;;;;;6299254;28;20484;-66
2023/02/21 03:31:23;;;;;;;9.60;6.37;;;6.70;96.70;;;;;;6299397;28;20473;-67
2023/02/21 03:34:26;;;;;;;5.90;4.60;;;6.60;96.80;;;;;;6293531;28;20515;-67
2023/02/21 03:37:35;;;;;;;8.20;5.90;;;6.60;96.70;;;;;;6280993;28;20989;-67
2023/02/21 03:40:38;;;;;;;7.40;5.40;;;6.70;96.80;;;;;;6274678;28;20474;-67
2023/02/21 03:43:41;;;;;;;5.30;4.80;;;6.60;96.60;;;;;;6274721;28;20493;-67
2023/02/21 03:46:44;;;;;;;5.47;4.30;;;6.60;96.70;;;;;;6273963;28;20937;-67
2023/02/21 03:49:47;;;;;;;5.43;4.80;;;6.60;96.60;;;;;;6272568;28;20477;-66
2023/02/21 03:52:52;;;;;;;5.70;5.10;;;6.70;96.60;;;;;;6274506;28;20470;-66
2023/02/21 03:55:56;;;;;;;7.87;7.07;;;6.60;96.30;;;;;;6274636;28;20949;-66
2023/02/21 03:58:59;;;;;;;7.27;4.47;;;6.50;96.60;;;;;;6273603;28;20474;-66
2023/02/21 04:02:02;;;;;;;5.20;4.70;;;6.50;96.60;;;;;;6273901;28;20481;-67
2023/02/21 04:05:06;;;;;;;4.50;4.10;;;6.50;96.60;;;;;;6274012;28;20466;-67
2023/02/21 04:08:11;;;;;;;5.13;4.50;;;6.40;96.70;;;;;;6273776;28;20470;-66
2023/02/21 04:11:18;;;;;;;4.40;3.83;;;6.40;96.70;;;;;;6273541;28;20481;-66
2023/02/21 04:14:21;;;;;;;6.50;4.20;;;6.40;96.70;;;;;;6273908;28;20508;-67
2023/02/21 04:17:24;;;;;;;4.47;3.70;;;6.40;96.70;;;;;;6269085;28;20968;-67
2023/02/21 04:20:28;;;;;;;3.40;3.10;;;6.40;96.70;;;;;;6273983;28;20529;-66
2023/02/21 04:23:32;;;;;;;4.70;3.63;;;6.40;96.70;;;;;;6273810;28;20973;-66
2023/02/21 04:26:35;;;;;;;7.33;3.57;;;6.40;96.70;;;;;;6279635;28;20472;-66
2023/02/21 04:29:39;;;;;;;6.27;4.07;;;6.40;96.70;;;;;;6297641;28;20481;-66
2023/02/21 04:32:42;;;;;;;4.43;3.07;;;6.40;96.40;;;;;;6323735;28;20516;-67
2023/02/21 04:35:45;;;;;;;4.83;3.40;;;6.30;96.50;;;;;;6303626;28;20467;-67
2023/02/21 04:38:50;;;;;;;7.50;3.90;;;6.40;96.60;;;;;;6302565;28;20469;-66
2023/02/21 04:41:53;;;;;;;3.73;3.43;;;6.40;96.60;;;;;;6303118;28;20479;-66
2023/02/21 04:44:56;;;;;;;4.87;3.40;;;6.30;96.40;;;;;;6302864;28;20916;-67
2023/02/21 04:48:02;;;;;;;5.30;3.57;;;6.40;96.50;;;;;;6302592;28;20718;-67
2023/02/21 04:51:06;;;;;;;4.60;3.40;;;6.40;96.30;;;;;;6302568;28;20437;-70
2023/02/21 04:54:19;;;;;;;6.63;3.80;;;6.40;96.50;;;;;;6302613;28;20469;-67
2023/02/21 04:57:23;;;;;;;4.73;3.63;;;6.30;96.30;;;;;;6302518;28;20476;-67
2023/02/21 05:00:26;;;;;;;4.10;3.70;;;6.30;96.20;;;;;;6302599;28;20484;-66
2023/02/21 05:03:29;;;;;;;5.40;4.00;;;6.30;96.10;;;;;;6302301;28;20461;-67
2023/02/21 05:06:32;;;;;;;4.50;4.10;;;6.30;96.00;;;;;;6302497;28;20465;-67
2023/02/21 05:09:37;;;;;;;7.80;4.23;;;6.10;96.50;;;;;;6302365;28;20489;-66
2023/02/21 05:12:40;;;;;;;3.57;3.00;;;6.10;96.70;;;;;;6302416;28;20961;-67
2023/02/21 05:15:43;;;;;;;4.07;3.50;;;6.10;96.70;;;;;;6302056;28;20511;-67
2023/02/21 05:18:48;;;;;;;5.00;4.50;;;6.10;96.80;;;;;;6302201;28;20473;-66
2023/02/21 05:21:51;;;;;;;5.00;4.17;;;6.10;96.80;;;;;;6301892;28;20474;-67
2023/02/21 05:24:56;;;;;;;6.17;4.70;;;6.10;96.70;;;;;;6301532;28;20480;-67
2023/02/21 05:27:59;;;;;;;5.00;4.20;;;6.10;96.80;;;;;;6311603;28;20472;-67
2023/02/21 05:31:02;;;;;;;7.60;3.90;;;6.10;96.70;;;;;;6316794;28;20552;-67
2023/02/21 05:34:06;;;;;;;5.27;4.40;;;6.10;96.80;;;;;;6301796;28;20461;-68
2023/02/21 05:37:09;;;;;;;4.93;4.00;;;6.20;96.90;;;;;;6301259;28;20844;-67
2023/02/21 05:40:18;;;;;;;6.60;3.93;;;6.20;96.70;;;;;;6301735;28;20491;-67
2023/02/21 05:43:21;;;;;;;6.60;3.63;;;6.20;96.80;;;;;;6313705;28;20498;-67
2023/02/21 05:46:26;;;;;;;4.80;4.30;;;6.20;96.70;;;;;;6326969;28;20864;-67
2023/02/21 05:49:29;;;;;;;8.07;4.03;;;6.20;96.70;;;;;;6328176;28;20468;-66
2023/02/21 05:52:32;;;;;;;7.83;4.77;;;6.20;96.60;;;;;;6327188;28;20484;-67
2023/02/21 05:55:37;;;;;;;4.00;3.60;;;6.20;96.60;;;;;;6311355;28;20927;-67
2023/02/21 05:58:41;;;;;;;4.83;3.57;;;6.10;96.20;;;;;;6300496;28;20968;-67
2023/02/21 06:01:44;;;;;;;4.10;3.40;;;6.10;96.40;;;;;;6300748;28;20477;-67
2023/02/21 06:04:47;;;;;;;4.00;3.43;;;6.00;96.40;;;;;;6300849;28;20469;-67
2023/02/21 06:07:51;;;;;;;6.83;4.07;;;6.00;96.50;;;;;;6300892;28;20473;-67
2023/02/21 06:10:55;;;;;;;4.27;3.80;;;6.00;96.70;;;;;;6300483;28;20480;-67
2023/02/21 06:14:02;;;;;;;4.67;3.87;;;6.00;96.70;;;;;;6300553;28;20523;-67
2023/02/21 06:17:05;;;;;;;6.43;3.60;;;6.00;96.60;;;;;;6300840;28;20472;-67
2023/02/21 06:20:11;;;;;;;6.63;3.67;;;5.90;96.60;;;;;;6300153;28;20819;-66
2023/02/21 06:23:14;;;;;;;6.83;4.37;;;5.90;96.70;;;;;;6300518;28;20980;-66
2023/02/21 06:26:19;;;;;;;9.83;4.83;;;6.00;96.70;;;;;;6299776;28;20469;-67
2023/02/21 06:29:23;;;;;;;9.20;5.30;;;6.00;96.50;;;;;;6299490;28;20488;-66
2023/02/21 06:32:26;;;;;;;7.40;4.23;;;6.00;96.40;;;;;;6299874;28;20474;-67
2023/02/21 06:35:29;;;;;;;12.73;5.20;;;6.00;96.40;;;;;;6299901;28;20469;-67
2023/02/21 06:38:33;;;;;;;8.03;4.53;;;6.10;96.40;;;;;;6300426;28;20478;-66
2023/02/21 06:41:37;;;;;;;10.37;5.20;;;6.20;96.50;;;;;;6299789;28;20476;-67
2023/02/21 06:44:42;;;;;;;6.53;4.47;;;6.20;96.20;;;;;;6300437;28;20469;-67
2023/02/21 06:47:46;;;;;;;5.77;4.80;;;6.40;96.30;;;;;;6299937;28;20480;-67
2023/02/21 06:50:49;;;;;;;10.90;4.90;;;6.60;96.10;;;;;;6299587;28;20480;-67
2023/02/21 06:53:52;;;;;;;8.33;4.37;;;6.80;95.80;;;;;;6299844;28;20464;-67
2023/02/21 06:56:57;;;;;;;5.83;4.77;;;6.90;95.00;;;;;;6299093;28;20511;-67
2023/02/21 07:00:01;;;;;;;5.97;4.30;;;7.00;95.10;;;;;;6299477;28;20937;-67
2023/02/21 07:03:04;;;;;;;4.70;3.90;;;7.20;94.80;;;;;;6299705;28;20442;-67
2023/02/21 07:06:07;;;;;;;8.00;4.23;;;7.40;94.40;;;;;;6300241;28;20433;-67
2023/02/21 07:09:10;;;;;;;8.53;3.70;;;7.60;94.00;;;;;;6299696;28;20465;-67
2023/02/21 07:12:15;;;;;;;4.67;3.57;;;7.70;93.30;;;;;;6299826;28;20461;-67
2023/02/21 07:15:18;;;;;;;5.10;4.20;;;7.90;93.00;;;;;;6299475;28;20487;-67
2023/02/21 07:18:21;;;;;;;7.77;4.57;;;7.90;92.40;;;;;;6299307;28;20930;-66
2023/02/21 07:21:27;;;;;;;8.77;4.40;;;8.00;92.40;;;;;;6298751;28;20930;-67
2023/02/21 07:24:30;;;;;;;7.60;5.17;;;8.00;92.30;;;;;;6299079;28;20473;-67
2023/02/21 07:27:35;;;;;;;5.90;5.20;;;8.10;92.30;;;;;;6296093;28;20951;-67
2023/02/21 07:30:38;;;;;;;5.23;4.73;;;8.20;92.30;;;;;;6317688;28;20492;-67
2023/02/21 07:33:41;;;;;;;4.97;4.07;;;8.30;91.60;;;;;;6299490;28;21011;-67
2023/02/21 07:36:44;;;;;;;4.77;3.90;;;8.40;91.30;;;;;;6299412;28;20522;-67
2023/02/21 07:39:48;;;;;;;7.67;4.03;;;8.50;91.10;;;;;;6299081;28;20469;-67
2023/02/21 07:42:52;;;;;;;5.07;3.77;;;8.70;90.80;;;;;;6299149;28;20469;-67
2023/02/21 07:45:56;;;;;;;8.40;4.23;;;8.90;90.10;;;;;;6298958;28;20469;-67
2023/02/21 07:48:59;;;;;;;6.37;4.00;;;9.00;89.40;;;;;;6298844;28;20989;-67
2023/02/21 07:52:03;;;;;;;3.80;3.17;;;9.10;88.50;;;;;;6300029;28;20750;-67
2023/02/21 07:55:06;;;;;;;9.33;4.00;;;9.20;87.70;;;;;;6298802;28;20999;-67
2023/02/21 07:58:11;;;;;;;7.40;4.20;;;9.20;86.10;;;;;;6298626;28;20757;-66
2023/02/21 08:01:14;;;;;;;12.13;4.93;;;9.30;85.30;;;;;;6298768;28;20484;-67
2023/02/21 08:04:20;;;;;;;13.17;8.43;;;9.30;84.70;;;;;;6298654;28;21003;-67
2023/02/21 08:07:24;;;;;;;6.77;4.53;;;9.30;84.60;;;;;;6299897;28;20475;-67
2023/02/21 08:10:28;;;;;;;6.77;3.90;;;9.40;84.70;;;;;;6303565;28;20473;-67
2023/02/21 08:13:32;;;;;;;7.30;4.20;;;9.40;84.60;;;;;;6305822;28;20487;-67
2023/02/21 08:16:36;;;;;;;6.80;3.90;;;9.40;84.30;;;;;;6305085;28;20473;-67
2023/02/21 08:19:39;;;;;;;4.23;3.70;;;9.30;84.30;;;;;;6303469;28;20473;-67
2023/02/21 08:22:42;;;;;;;8.00;4.30;;;9.50;84.40;;;;;;6303391;28;20476;-67
2023/02/21 08:25:46;;;;;;;6.20;3.80;;;9.60;84.40;;;;;;6302845;28;20473;-67
2023/02/21 08:28:50;;;;;;;9.43;4.50;;;9.70;84.30;;;;;;6302546;28;20476;-66
2023/02/21 08:31:54;;;;;;;9.10;4.40;;;9.90;83.80;;;;;;6298899;28;20462;-67
2023/02/21 08:34:57;;;;;;;8.17;3.70;;;10.10;81.80;;;;;;6302705;28;20476;-67
2023/02/21 08:38:02;;;;;;;5.07;3.43;;;10.20;80.80;;;;;;6302044;28;20488;-67
2023/02/21 08:41:05;;;;;;;6.50;4.40;;;10.50;79.80;;;;;;6301297;28;20477;-67
2023/02/21 08:44:14;;;;;;;5.13;4.10;;;10.90;77.20;;;;;;6290151;28;20466;-67
2023/02/21 08:47:18;;;;;;;7.20;4.57;;;11.40;75.90;;;;;;6294464;28;20477;-67
2023/02/21 08:50:23;;;;;;;6.73;4.37;;;13.40;70.50;;;;;;6278304;28;20478;-67
2023/02/21 08:53:27;;;;;;;8.93;4.73;;;17.60;59.60;;;;;;6291613;28;20922;-68
2023/02/21 08:56:30;;;;;;;12.93;5.07;;;22.20;44.30;;;;;;6302127;28;20780;-68
2023/02/21 08:59:36;;;;;;;7.93;4.77;;;26.00;33.10;;;;;;6302299;28;20706;-67
2023/02/21 09:02:40;;;;;;;7.50;4.90;;;29.00;27.50;;;;;;6282665;28;20283;-68
2023/02/21 09:05:43;;;;;;;8.77;5.27;;;31.30;23.80;;;;;;6278544;28;20231;-68
2023/02/21 09:08:46;;;;;;;9.18;5.60;;;33.30;22.20;;;;;;6278199;28;20273;-68
2023/02/21 09:11:49;;;;;;;9.52;5.40;;;35.00;19.30;;;;;;6278157;28;20229;-68
2023/02/21 09:14:54;;;;;;;8.25;5.30;;;36.70;18.00;;;;;;6277182;28;20238;-68
2023/02/21 09:17:57;;;;;;;9.20;7.05;;;38.30;16.70;;;;;;6282241;28;20222;-68
2023/02/21 09:21:00;;;;;;;10.68;7.45;;;38.80;15.90;;;;;;6301852;28;20234;-68
2023/02/21 09:24:04;;;;;;;10.73;7.47;;;39.70;15.20;;;;;;6301648;28;20228;-68
2023/02/21 09:27:07;;;;;;;8.27;7.47;;;40.20;14.60;;;;;;6301863;28;20199;-68
2023/02/21 09:30:22;;;;;;;8.68;7.85;;;40.90;13.90;;;;;;6299599;28;20225;-68
2023/02/21 09:33:25;;;;;;;7.05;6.45;;;40.60;13.60;;;;;;6300760;28;20526;-68
2023/02/21 09:36:29;;;;;;;6.88;6.20;;;41.20;13.30;;;;;;6300942;28;20584;-68
2023/02/21 09:39:32;;;;;;;9.63;6.90;;;41.20;13.10;;;;;;6300872;28;20229;-68
2023/02/21 09:42:35;;;;;;;6.75;5.47;;;40.90;13.10;;;;;;6301122;28;20241;-68
2023/02/21 09:45:40;;;;;;;9.45;5.80;;;40.90;13.00;;;;;;6300929;28;20233;-68
2023/02/21 09:48:44;;;;;;;7.85;6.95;;;41.20;12.60;;;;;;6300910;28;20241;-68
2023/02/21 09:51:52;;;;;;;7.10;6.32;;;40.90;12.90;;;;;;6300532;28;20215;-68
2023/02/21 09:54:58;;;;;;;7.15;6.40;;;41.30;12.40;;;;;;6300806;28;20229;-68
2023/02/21 09:58:02;;;;;;;8.02;6.00;;;41.80;12.20;;;;;;6301127;28;20224;-68
2023/02/21 10:01:14;;;;;;;9.20;6.40;;;42.30;11.90;;;;;;6301266;28;20232;-67
2023/02/21 10:04:27;;;;;;;8.02;5.30;;;43.50;11.40;;;;;;6301097;28;20227;-67
2023/02/21 10:07:39;;;;;;;6.43;5.90;;;44.20;11.10;;;;;;6301206;28;20691;-67
2023/02/21 10:10:46;;;;;;;7.97;5.72;;;45.10;10.60;;;;;;6300681;28;20663;-66
2023/02/21 10:13:55;;;;;;;9.90;6.07;;;45.80;10.00;;;;;;6300152;28;20251;-68
2023/02/21 10:17:10;;;;;;;7.35;6.40;;;46.30;9.90;;;;;;6300405;28;20237;-68
2023/02/21 10:20:16;;;;;;;10.80;7.85;;;45.80;9.90;;;;;;6300324;28;20567;-67
2023/02/21 10:23:23;;;;;;;9.93;8.32;;;46.10;10.00;;;;;;6300080;28;20713;-67
2023/02/21 10:26:29;;;;;;;11.90;8.30;;;46.00;9.80;;;;;;6300050;28;20241;-67
2023/02/21 10:29:40;;;;;;;16.50;7.47;;;44.30;10.40;;;;;;6321769;28;20232;-67
2023/02/21 10:32:45;;;;;;;10.68;7.10;;;45.00;9.90;;;;;;6300344;28;20234;-67
2023/02/21 10:35:48;;;;;;;10.27;6.47;;;45.10;9.40;;;;;;6301964;28;20230;-67
2023/02/21 10:38:56;;;;;;;10.10;5.05;;;46.10;9.10;;;;;;6300690;28;20238;-68
2023/02/21 10:42:01;;;;;;;8.32;5.65;;;46.70;8.40;;;;;;6300278;28;20214;-67
2023/02/21 10:45:05;;;;;;;6.30;4.38;;;46.70;8.50;;;;;;6299283;28;20202;-67
2023/02/21 10:48:12;;;;;;;8.45;4.57;;;47.50;8.00;;;;;;6289024;28;20531;-67
2023/02/21 10:51:17;;;;;;;14.52;5.20;;;48.30;7.70;;;;;;6299962;28;20222;-68
2023/02/21 10:54:22;;;;;;;7.57;3.70;;;48.60;7.80;;;;;;6299398;28;20258;-68
2023/02/21 10:57:25;;;;;;;5.78;3.78;;;49.10;7.20;;;;;;6298926;28;20561;-67
2023/02/21 11:00:33;;;;;;;6.78;4.10;;;48.30;7.20;;;;;;6299809;28;20222;-68
2023/02/21 11:03:43;;;;;;;3.83;3.25;;;47.90;7.40;;;;;;6299368;28;20226;-67
2023/02/21 11:06:49;;;;;;;4.82;3.72;;;47.90;7.40;;;;;;6296478;28;20211;-68
2023/02/21 11:09:54;;;;;;;7.90;3.85;;;48.20;7.40;;;;;;6298289;28;20230;-67
2023/02/21 11:13:14;;;;;;;6.05;3.42;;;48.30;7.10;;;;;;6298589;28;20230;-67
2023/02/21 11:16:23;;;;;;;4.95;3.60;;;47.50;7.60;;;;;;6299210;28;20226;-68
2023/02/21 11:19:28;;;;;;;4.13;3.47;;;48.50;7.40;;;;;;6298754;28;20245;-68
2023/02/21 11:22:41;;;;;;;3.67;3.38;;;49.50;7.00;;;;;;6298067;28;20237;-68
2023/02/21 11:25:46;;;;;;;3.78;2.75;;;49.90;6.40;;;;;;6288266;28;20228;-70
2023/02/21 11:28:49;;;;;;;4.70;2.88;;;50.60;6.30;;;;;;6315529;28;20246;-69
2023/02/21 11:31:53;;;;;;;3.67;2.42;;;51.00;5.90;;;;;;6308099;28;20221;-69
2023/02/21 11:35:08;;;;;;;3.28;3.00;;;50.70;6.20;;;;;;6299087;28;20550;-69
2023/02/21 11:38:31;;;;;;;3.80;2.53;;;51.00;5.60;;;;;;6299169;28;20225;-69
2023/02/21 11:41:45;;;;;;;3.58;3.08;;;51.20;5.50;;;;;;6300832;28;20225;-70
2023/02/21 11:44:51;;;;;;;5.50;2.90;;;51.60;5.70;;;;;;6299633;28;20230;-69
2023/02/21 11:48:01;;;;;;;3.40;2.88;;;51.20;5.70;;;;;;6304351;28;20217;-70
2023/02/21 11:51:16;;;;;;;5.55;3.22;;;50.60;5.80;;;;;;6304114;28;20241;-69
2023/02/21 11:54:23;;;;;;;4.28;2.88;;;49.60;6.10;;;;;;6304198;28;20311;-69
2023/02/21 11:57:38;;;;;;;4.15;2.95;;;50.40;5.70;;;;;;6296376;28;20230;-68
2023/02/21 12:01:00;;;;;;;4.68;4.28;;;49.10;6.10;;;;;;6279460;28;20245;-69
2023/02/21 12:04:24;;;;;;;2.67;2.47;;;48.40;6.30;;;;;;6279852;28;20300;-69
2023/02/21 12:07:39;;;;;;;3.00;2.50;;;49.20;5.80;;;;;;6279497;28;20230;-70
2023/02/21 12:10:51;;;;;;;3.83;2.70;;;49.70;5.90;;;;;;6279093;28;20233;-68
2023/02/21 12:14:07;;;;;;;4.00;2.85;;;50.00;5.80;;;;;;6278254;28;20231;-68
2023/02/21 12:17:45;;;;;;;3.63;2.10;;;48.60;6.00;;;;;;6278686;28;20238;-69
2023/02/21 12:21:14;;;;;;;5.50;2.67;;;48.60;6.00;;;;;;6273483;28;20256;-69
2023/02/21 12:24:43;;;;;;;2.67;2.47;;;49.10;6.20;;;;;;6286274;28;20233;-68
2023/02/21 12:27:54;;;;;;;3.72;3.00;;;49.60;5.80;;;;;;6306132;28;20219;-68
2023/02/21 12:31:21;;;;;;;4.93;3.13;;;48.60;6.10;;;;;;6301968;28;20255;-69
2023/02/21 12:34:41;;;;;;;4.28;2.97;;;48.70;6.20;;;;;;6278877;28;20714;-68
2023/02/21 12:37:56;;;;;;;4.60;2.85;;;49.50;5.90;;;;;;6277882;28;20557;-69
2023/02/21 12:41:13;;;;;;;5.57;2.95;;;49.80;5.90;;;;;;6277913;28;20705;-68
2023/02/21 12:44:20;;;;;;;4.60;2.60;;;50.40;5.70;;;;;;6288461;28;20218;-68
2023/02/21 12:47:28;;;;;;;4.55;2.40;;;49.00;5.50;;;;;;6302573;28;20228;-68
2023/02/21 12:50:35;;;;;;;4.13;2.50;;;49.00;5.70;;;;;;6328184;28;20229;-69
2023/02/21 12:53:45;;;;;;;2.47;1.60;;;48.90;5.60;;;;;;6305688;28;20635;-68
2023/02/21 12:56:56;;;;;;;3.17;2.05;;;48.80;5.30;;;;;;6326984;28;20239;-69
2023/02/21 13:00:16;;;;;;;2.60;1.60;;;48.70;5.30;;;;;;6302440;28;20227;-67
2023/02/21 13:03:34;;;;;;;2.33;2.13;;;48.10;5.30;;;;;;6302382;28;20674;-68
2023/02/21 13:06:46;;;;;;;7.45;1.73;;;47.00;5.70;;;;;;6301857;28;20295;-68
2023/02/21 13:09:56;;;;;;;3.60;1.85;;;46.80;5.90;;;;;;6302245;28;20234;-68
2023/02/21 13:13:07;;;;;;;3.80;2.05;;;45.50;6.00;;;;;;6301973;28;20237;-69
2023/02/21 13:16:12;;;;;;;3.13;1.98;;;45.00;6.10;;;;;;6302369;28;20234;-69
2023/02/21 13:19:16;;;;;;;4.80;2.28;;;44.40;6.30;;;;;;6302247;28;20243;-68
2023/02/21 13:26:44;;;;;;;2.05;1.55;;;44.80;6.70;;;;;;6298380;28;20237;-68
2023/02/21 13:29:49;;;;;;;7.40;1.77;;;45.60;6.00;;;;;;6326450;28;20232;-69
2023/02/21 13:32:55;;;;;;;3.13;1.50;;;45.10;6.00;;;;;;6302094;28;20235;-69
2023/02/21 13:36:00;;;;;;;2.50;1.55;;;45.40;5.90;;;;;;6302097;28;20229;-68
2023/02/21 13:39:12;;;;;;;2.47;1.80;;;44.20;6.30;;;;;;6301421;28;20241;-68
2023/02/21 13:42:18;;;;;;;2.05;1.73;;;44.70;6.10;;;;;;6302051;28;20226;-68
2023/02/21 13:45:26;;;;;;;5.05;1.80;;;45.00;6.00;;;;;;6301575;28;20231;-68
2023/02/21 13:48:29;;;;;;;5.25;1.67;;;44.70;6.00;;;;;;6301798;28;20222;-68
2023/02/21 13:51:46;;;;;;;3.45;1.63;;;45.20;6.10;;;;;;6296829;28;20229;-69
2023/02/21 13:55:30;;;;;;;5.13;1.90;;;45.40;5.90;;;;;;6300752;28;20662;-69
2023/02/21 13:58:36;;;;;;;1.60;1.50;;;45.10;6.00;;;;;;6299777;28;20226;-68
2023/02/21 14:01:42;;;;;;;1.95;1.30;;;45.30;5.90;;;;;;6301198;28;20686;-69
2023/02/21 14:05:02;;;;;;;2.25;1.30;;;43.40;6.30;;;;;;6299850;28;20233;-69
2023/02/21 14:08:07;;;;;;;2.40;1.55;;;41.50;7.00;;;;;;6301130;28;20234;-67
2023/02/21 14:11:15;;;;;;;5.63;1.80;;;39.50;7.80;;;;;;6300559;28;20236;-69
2023/02/21 14:14:25;;;;;;;3.38;1.30;;;37.10;8.90;;;;;;6300890;28;20235;-68
2023/02/21 14:17:30;;;;;;;3.55;1.40;;;34.60;10.20;;;;;;6300566;28;20601;-68
2023/02/21 14:20:36;;;;;;;3.83;1.67;;;32.20;11.60;;;;;;6300773;28;20573;-68
2023/02/21 14:23:47;;;;;;;3.03;1.30;;;30.30;12.90;;;;;;6298583;28;20214;-68
2023/02/21 14:26:55;;;;;;;2.43;1.37;;;29.00;14.00;;;;;;6283385;28;21065;-67
2023/02/21 14:30:28;;;;;;;3.73;3.43;;;27.90;14.70;;;;;;6300716;28;20226;-68
2023/02/21 14:33:33;;;;;;;3.83;1.77;;;27.00;16.20;;;;;;6322059;28;20226;-67
2023/02/21 14:36:37;;;;;;;4.10;1.27;;;26.40;16.30;;;;;;6300416;28;20230;-67
2023/02/21 14:39:43;;;;;;;4.40;1.03;;;25.90;17.00;;;;;;6300298;28;20248;-69
2023/02/21 14:43:01;;;;;;;1.87;0.90;;;25.50;17.20;;;;;;6299891;28;20230;-68
2023/02/21 14:46:42;;;;;;;1.30;0.77;;;25.20;17.90;;;;;;6300211;28;20223;-68
2023/02/21 14:50:00;;;;;;;2.70;0.50;;;24.80;18.40;;;;;;6299163;28;20253;-68
2023/02/21 14:53:31;;;;;;;0.90;0.60;;;24.30;18.40;;;;;;6296826;28;20219;-68
2023/02/21 14:56:50;;;;;;;7.93;1.70;;;23.90;18.70;;;;;;6298194;28;20223;-68
2023/02/21 15:00:08;;;;;;;1.30;0.70;;;23.40;19.30;;;;;;6299340;28;20364;-68
2023/02/21 15:03:17;;;;;;;2.37;0.60;;;23.00;20.00;;;;;;6299178;28;20219;-68
2023/02/21 15:06:22;;;;;;;1.20;0.60;;;22.70;20.10;;;;;;6301532;28;20223;-67
2023/02/21 15:09:26;;;;;;;1.37;0.73;;;22.60;20.30;;;;;;6302512;28;20233;-69
2023/02/21 15:12:29;;;;;;;2.03;1.10;;;22.40;20.40;;;;;;6302554;28;20237;-69
2023/02/21 15:15:35;;;;;;;1.33;0.90;;;22.20;20.70;;;;;;6299744;28;20242;-68
2023/02/21 15:18:40;;;;;;;1.30;0.73;;;21.90;20.80;;;;;;6299310;28;20234;-67
2023/02/21 15:21:44;;;;;;;1.30;0.80;;;21.70;21.00;;;;;;6299176;28;20564;-67
2023/02/21 15:25:16;;;;;;;1.53;0.80;;;21.40;20.90;;;;;;6299224;28;20231;-68
2023/02/21 15:28:23;;;;;;;1.37;1.10;;;21.20;21.30;;;;;;6311999;28;20225;-67
2023/02/21 15:31:27;;;;;;;3.13;0.87;;;21.10;21.50;;;;;;6311971;28;20233;-68
2023/02/21 15:34:35;;;;;;;1.20;0.70;;;20.80;21.90;;;;;;6299179;28;20227;-68
2023/02/21 15:37:43;;;;;;;1.93;0.90;;;20.70;22.60;;;;;;6299134;28;20244;-67
2023/02/21 15:40:48;;;;;;;0.80;0.67;;;20.60;22.70;;;;;;6298843;28;20234;-68
2023/02/21 15:43:57;;;;;;;1.03;0.50;;;20.50;23.00;;;;;;6299409;28;20226;-68
2023/02/21 15:47:04;;;;;;;0.90;0.60;;;20.50;22.80;;;;;;6299170;28;20234;-68
2023/02/21 15:50:12;;;;;;;0.70;0.50;;;20.40;23.20;;;;;;6299141;28;20245;-68
2023/02/21 15:53:19;;;;;;;1.97;0.87;;;20.30;23.30;;;;;;6298945;28;20290;-68
2023/02/21 15:56:27;;;;;;;1.60;0.70;;;20.20;23.60;;;;;;6299239;28;20231;-68
2023/02/21 15:59:31;;;;;;;1.70;0.70;;;20.10;23.70;;;;;;6298688;28;20231;-67
2023/02/21 16:02:35;;;;;;;0.70;0.57;;;20.00;24.00;;;;;;6293900;28;20565;-67
2023/02/21 16:05:39;;;;;;;1.60;0.87;;;19.90;24.20;;;;;;6298946;28;20321;-68
2023/02/21 16:09:02;;;;;;;3.93;1.57;;;19.90;24.30;;;;;;6298473;28;20577;-67
2023/02/21 16:12:18;;;;;;;1.00;0.70;;;19.80;24.70;;;;;;6300213;28;20208;-68
2023/02/21 16:15:26;;;;;;;1.17;0.77;;;19.70;24.70;;;;;;6324221;28;20241;-68
2023/02/21 16:18:30;;;;;;;3.13;0.70;;;19.60;24.70;;;;;;6324113;28;20292;-68
2023/02/21 16:21:34;;;;;;;2.13;0.90;;;19.50;25.20;;;;;;6323494;28;20225;-68
2023/02/21 16:24:40;;;;;;;3.83;0.80;;;19.40;25.80;;;;;;6323609;28;20222;-67
2023/02/21 16:27:47;;;;;;;2.03;0.80;;;19.20;25.50;;;;;;6323639;28;20586;-67
2023/02/21 16:30:51;;;;;;;3.67;1.57;;;19.20;25.60;;;;;;6328231;28;20226;-68
2023/02/21 16:33:55;;;;;;;4.50;2.87;;;19.10;25.70;;;;;;6328461;28;20685;-67
2023/02/21 16:37:04;;;;;;;7.00;4.17;;;18.90;25.90;;;;;;6327457;28;20218;-67
2023/02/21 16:40:23;;;;;;;8.87;5.00;;;18.80;26.20;;;;;;6326966;28;20535;-67
2023/02/21 16:43:30;;;;;;;6.33;4.03;;;18.70;26.40;;;;;;6329148;28;20254;-66
2023/02/21 16:46:33;;;;;;;6.53;2.73;;;18.70;26.60;;;;;;6328275;28;20230;-66
2023/02/21 16:49:37;;;;;;;3.60;1.70;;;18.60;26.90;;;;;;6329255;28;20819;-66
2023/02/21 16:52:41;;;;;;;3.43;2.13;;;18.50;27.00;;;;;;6329260;28;20244;-66
2023/02/21 16:55:47;;;;;;;2.57;1.60;;;18.40;27.30;;;;;;6327914;28;20237;-67
2023/02/21 16:58:54;;;;;;;2.50;2.00;;;18.30;27.50;;;;;;6327902;28;20566;-67
2023/02/21 17:01:58;;;;;;;4.07;2.80;;;18.20;27.60;;;;;;6327850;28;20247;-67
2023/02/21 17:05:03;;;;;;;6.30;3.27;;;18.10;27.90;;;;;;6328851;28;20226;-66
2023/02/21 17:08:06;;;;;;;5.83;3.40;;;18.00;28.40;;;;;;6344323;28;20234;-65
2023/02/21 17:11:11;;;;;;;5.10;3.50;;;17.90;28.60;;;;;;6346086;28;20290;-65
2023/02/21 17:14:15;;;;;;;7.33;3.43;;;17.70;28.80;;;;;;6339512;28;20249;-65
2023/02/21 17:17:19;;;;;;;5.10;3.50;;;17.60;29.20;;;;;;6340117;28;20237;-67
2023/02/21 17:20:23;;;;;;;4.70;4.23;;;17.50;29.30;;;;;;6342667;28;20250;-68
2023/02/21 17:23:27;;;;;;;4.17;3.77;;;17.40;29.50;;;;;;6341971;28;20282;-68
2023/02/21 17:26:33;;;;;;;3.80;3.50;;;17.30;29.80;;;;;;6350365;28;20221;-64
2023/02/21 17:29:38;;;;;;;4.50;4.10;;;17.30;30.00;;;;;;6356754;28;20241;-65
2023/02/21 17:32:42;;;;;;;7.33;4.57;;;17.10;30.00;;;;;;6327628;28;20223;-69
2023/02/21 17:35:46;;;;;;;8.87;5.10;;;17.00;30.40;;;;;;6323322;28;20346;-68
2023/02/21 17:38:50;;;;;;;7.03;6.07;;;16.90;30.80;;;;;;6314936;28;20230;-68
2023/02/21 17:41:56;;;;;;;7.57;5.07;;;16.80;31.20;;;;;;6307687;28;20472;-68
2023/02/21 17:45:04;;;;;;;7.50;4.53;;;16.70;31.50;;;;;;6306519;28;20532;-67
2023/02/21 17:48:09;;;;;;;7.67;5.87;;;16.60;32.30;;;;;;6302916;28;20428;-67
2023/02/21 17:51:23;;;;;;;9.43;4.70;;;16.40;32.50;;;;;;6302074;28;20463;-68
2023/02/21 17:54:29;;;;;;;6.20;4.10;;;16.30;32.80;;;;;;6301563;28;20463;-67
2023/02/21 17:57:36;;;;;;;7.00;4.50;;;16.20;33.20;;;;;;6301063;28;20489;-69
2023/02/21 18:00:41;;;;;;;7.03;4.97;;;16.10;33.60;;;;;;6301477;28;20473;-68
2023/02/21 18:03:49;;;;;;;5.63;4.60;;;16.00;34.00;;;;;;6300988;28;20473;-68
2023/02/21 18:06:53;;;;;;;10.50;7.70;;;15.90;34.40;;;;;;6300758;28;20482;-68
2023/02/21 18:09:59;;;;;;;11.23;8.20;;;15.70;34.80;;;;;;6300936;28;20480;-68
2023/02/21 18:13:04;;;;;;;10.33;7.30;;;15.60;35.30;;;;;;6300832;28;20484;-68
2023/02/21 18:16:09;;;;;;;9.80;7.33;;;15.50;35.80;;;;;;6307977;28;20796;-66
2023/02/21 18:19:14;;;;;;;7.73;6.07;;;15.30;36.10;;;;;;6325742;28;20621;-68
2023/02/21 18:22:18;;;;;;;10.17;7.30;;;15.30;36.60;;;;;;6325316;28;20468;-68
2023/02/21 18:25:23;;;;;;;10.50;6.70;;;15.10;37.00;;;;;;6325427;28;20606;-68
2023/02/21 18:28:31;;;;;;;10.13;6.93;;;15.00;37.40;;;;;;6321426;28;20491;-67
2023/02/21 18:31:36;;;;;;;9.53;6.50;;;14.90;38.00;;;;;;6325905;28;20821;-69
2023/02/21 18:34:43;;;;;;;6.00;5.37;;;14.80;38.20;;;;;;6325208;28;20951;-67
2023/02/21 18:37:49;;;;;;;5.70;4.70;;;14.70;38.20;;;;;;6325003;28;20533;-68
2023/02/21 18:40:54;;;;;;;7.40;3.57;;;14.70;38.30;;;;;;6324602;28;20970;-67
2023/02/21 18:44:00;;;;;;;7.50;4.63;;;14.60;38.20;;;;;;6324955;28;20577;-66